sensor_id;sensor_type;location;lat;lon;timestamp;pressure;altitude;pressure_sealevel;temperature
15144;BMP180;7672;50.834;6.286;2023-03-01T00:01:22;100987.03;;;4.18
15144;BMP180;7672;50.834;6.286;2023-03-01T00:03:49;100975.16;;;4.14
15144;BMP180;7672;50.834;6.286;2023-03-01T00:06:17;100971.69;;;4.12
15144;BMP180;7672;50.834;6.286;2023-03-01T00:08:44;100969.91;;;4.09
15144;BMP180;7672;50.834;6.286;2023-03-01T00:11:26;100964.75;;;4.06
15144;BMP180;7672;50.834;6.286;2023-03-01T00:13:57;100972.13;;;4.03
15144;BMP180;7672;50.834;6.286;2023-03-01T00:16:37;100965.41;;;4.02
15144;BMP180;7672;50.834;6.286;2023-03-01T00:19:09;100973.59;;;4.00
15144;BMP180;7672;50.834;6.286;2023-03-01T00:21:37;100965.97;;;3.97
15144;BMP180;7672;50.834;6.286;2023-03-01T00:24:05;100975.28;;;3.99
15144;BMP180;7672;50.834;6.286;2023-03-01T00:26:32;100982.78;;;3.99
15144;BMP180;7672;50.834;6.286;2023-03-01T00:29:00;100980.34;;;4.01
15144;BMP180;7672;50.834;6.286;2023-03-01T00:31:30;100980.34;;;4.01
15144;BMP180;7672;50.834;6.286;2023-03-01T00:34:00;100992.69;;;3.98
15144;BMP180;7672;50.834;6.286;2023-03-01T00:36:32;100985.81;;;3.94
15144;BMP180;7672;50.834;6.286;2023-03-01T00:39:01;100985.72;;;3.92
15144;BMP180;7672;50.834;6.286;2023-03-01T00:41:28;100984.78;;;3.90
15144;BMP180;7672;50.834;6.286;2023-03-01T00:43:55;100986.38;;;3.88
15144;BMP180;7672;50.834;6.286;2023-03-01T00:46:25;100987.22;;;3.89
15144;BMP180;7672;50.834;6.286;2023-03-01T00:48:53;100987.91;;;3.86
15144;BMP180;7672;50.834;6.286;2023-03-01T00:51:26;100979.56;;;3.86
15144;BMP180;7672;50.834;6.286;2023-03-01T00:53:59;100986.13;;;3.84
15144;BMP180;7672;50.834;6.286;2023-03-01T00:56:28;100975.19;;;3.82
15144;BMP180;7672;50.834;6.286;2023-03-01T00:58:55;100974.09;;;3.77
15144;BMP180;7672;50.834;6.286;2023-03-01T01:01:26;100972.38;;;3.76
15144;BMP180;7672;50.834;6.286;2023-03-01T01:03:58;100977.25;;;3.73
15144;BMP180;7672;50.834;6.286;2023-03-01T01:06:40;100974.75;;;3.73
15144;BMP180;7672;50.834;6.286;2023-03-01T01:09:17;100973.00;;;3.72
15144;BMP180;7672;50.834;6.286;2023-03-01T01:11:50;100969.75;;;3.73
15144;BMP180;7672;50.834;6.286;2023-03-01T01:14:18;100963.16;;;3.75
15144;BMP180;7672;50.834;6.286;2023-03-01T01:16:45;100966.53;;;3.75
15144;BMP180;7672;50.834;6.286;2023-03-01T01:19:12;100966.59;;;3.77
15144;BMP180;7672;50.834;6.286;2023-03-01T01:21:40;100962.53;;;3.79
15144;BMP180;7672;50.834;6.286;2023-03-01T01:24:09;100960.97;;;3.81
15144;BMP180;7672;50.834;6.286;2023-03-01T01:26:37;100959.31;;;3.81
15144;BMP180;7672;50.834;6.286;2023-03-01T01:29:05;100950.19;;;3.82
15144;BMP180;7672;50.834;6.286;2023-03-01T01:31:34;100950.19;;;3.82
15144;BMP180;7672;50.834;6.286;2023-03-01T01:34:05;100946.03;;;3.82
15144;BMP180;7672;50.834;6.286;2023-03-01T01:36:33;100950.19;;;3.82
15144;BMP180;7672;50.834;6.286;2023-03-01T01:39:01;100945.25;;;3.83
15144;BMP180;7672;50.834;6.286;2023-03-01T01:41:29;100942.75;;;3.83
15144;BMP180;7672;50.834;6.286;2023-03-01T01:44:22;100939.47;;;3.84
15144;BMP180;7672;50.834;6.286;2023-03-01T01:47:19;100928.47;;;3.81
15144;BMP180;7672;50.834;6.286;2023-03-01T01:49:55;100926.59;;;3.77
15144;BMP180;7672;50.834;6.286;2023-03-01T01:52:27;100925.63;;;3.75
15144;BMP180;7672;50.834;6.286;2023-03-01T01:55:08;100930.66;;;3.75
15144;BMP180;7672;50.834;6.286;2023-03-01T01:57:45;100917.94;;;3.70
15144;BMP180;7672;50.834;6.286;2023-03-01T02:00:18;100911.13;;;3.68
15144;BMP180;7672;50.834;6.286;2023-03-01T02:02:50;100915.19;;;3.66
15144;BMP180;7672;50.834;6.286;2023-03-01T02:05:31;100900.88;;;3.64
15144;BMP180;7672;50.834;6.286;2023-03-01T02:07:59;100905.69;;;3.59
15144;BMP180;7672;50.834;6.286;2023-03-01T02:10:28;100898.00;;;3.56
15144;BMP180;7672;50.834;6.286;2023-03-01T02:12:56;100889.53;;;3.53
15144;BMP180;7672;50.834;6.286;2023-03-01T02:15:23;100890.13;;;3.49
15144;BMP180;7672;50.834;6.286;2023-03-01T02:17:50;100891.63;;;3.45
15144;BMP180;7672;50.834;6.286;2023-03-01T02:21:05;100893.88;;;3.41
15144;BMP180;7672;50.834;6.286;2023-03-01T02:23:36;100891.69;;;3.31
15144;BMP180;7672;50.834;6.286;2023-03-01T02:26:40;100888.97;;;3.26
15144;BMP180;7672;50.834;6.286;2023-03-01T02:29:08;100878.59;;;3.19
15144;BMP180;7672;50.834;6.286;2023-03-01T02:31:35;100876.84;;;3.18
15144;BMP180;7672;50.834;6.286;2023-03-01T02:34:23;100880.84;;;3.14
15144;BMP180;7672;50.834;6.286;2023-03-01T02:37:09;100873.06;;;3.08
15144;BMP180;7672;50.834;6.286;2023-03-01T02:39:42;100877.00;;;3.05
15144;BMP180;7672;50.834;6.286;2023-03-01T02:42:16;100889.50;;;3.05
15144;BMP180;7672;50.834;6.286;2023-03-01T02:44:46;100875.91;;;3.00
15144;BMP180;7672;50.834;6.286;2023-03-01T02:47:12;100877.56;;;3.00
15144;BMP180;7672;50.834;6.286;2023-03-01T02:49:39;100882.56;;;3.00
15144;BMP180;7672;50.834;6.286;2023-03-01T02:55:11;100877.88;;;2.90
15144;BMP180;7672;50.834;6.286;2023-03-01T02:57:43;100886.06;;;2.87
15144;BMP180;7672;50.834;6.286;2023-03-01T03:00:15;100890.97;;;2.86
15144;BMP180;7672;50.834;6.286;2023-03-01T03:02:50;100891.75;;;2.85
15144;BMP180;7672;50.834;6.286;2023-03-01T03:05:27;100890.63;;;2.80
15144;BMP180;7672;50.834;6.286;2023-03-01T03:07:55;100883.00;;;2.77
15144;BMP180;7672;50.834;6.286;2023-03-01T03:10:33;100884.63;;;2.76
15144;BMP180;7672;50.834;6.286;2023-03-01T03:13:04;100895.28;;;2.74
15144;BMP180;7672;50.834;6.286;2023-03-01T03:15:32;100886.97;;;2.73
15144;BMP180;7672;50.834;6.286;2023-03-01T03:18:07;100881.91;;;2.72
15144;BMP180;7672;50.834;6.286;2023-03-01T03:20:35;100880.16;;;2.71
15144;BMP180;7672;50.834;6.286;2023-03-01T03:23:03;100875.25;;;2.72
15144;BMP180;7672;50.834;6.286;2023-03-01T03:25:30;100876.09;;;2.73
15144;BMP180;7672;50.834;6.286;2023-03-01T03:27:57;100868.59;;;2.73
15144;BMP180;7672;50.834;6.286;2023-03-01T03:30:29;100854.44;;;2.72
15144;BMP180;7672;50.834;6.286;2023-03-01T03:32:57;100870.34;;;2.74
15144;BMP180;7672;50.834;6.286;2023-03-01T03:35:34;100858.63;;;2.73
15144;BMP180;7672;50.834;6.286;2023-03-01T03:38:08;100860.28;;;2.72
15144;BMP180;7672;50.834;6.286;2023-03-01T03:40:49;100851.13;;;2.73
15144;BMP180;7672;50.834;6.286;2023-03-01T03:43:22;100867.00;;;2.73
15144;BMP180;7672;50.834;6.286;2023-03-01T03:45:50;100861.13;;;2.73
15144;BMP180;7672;50.834;6.286;2023-03-01T03:48:18;100852.00;;;2.73
15144;BMP180;7672;50.834;6.286;2023-03-01T03:50:55;100851.13;;;2.73
15144;BMP180;7672;50.834;6.286;2023-03-01T03:53:25;100846.94;;;2.72
15144;BMP180;7672;50.834;6.286;2023-03-01T03:55:52;100853.56;;;2.71
15144;BMP180;7672;50.834;6.286;2023-03-01T03:58:23;100851.81;;;2.70
15144;BMP180;7672;50.834;6.286;2023-03-01T04:00:53;100856.53;;;2.64
15144;BMP180;7672;50.834;6.286;2023-03-01T04:03:25;100862.22;;;2.62
15144;BMP180;7672;50.834;6.286;2023-03-01T04:05:53;100847.84;;;2.58
15144;BMP180;7672;50.834;6.286;2023-03-01T04:08:22;100865.13;;;2.55
15144;BMP180;7672;50.834;6.286;2023-03-01T04:10:52;100864.84;;;2.49
15144;BMP180;7672;50.834;6.286;2023-03-01T04:13:23;100863.81;;;2.45
15144;BMP180;7672;50.834;6.286;2023-03-01T04:15:53;100837.06;;;2.43
15144;BMP180;7672;50.834;6.286;2023-03-01T04:18:23;100831.91;;;2.40
15144;BMP180;7672;50.834;6.286;2023-03-01T04:20:52;100836.72;;;2.37
15144;BMP180;7672;50.834;6.286;2023-03-01T04:23:21;100837.47;;;2.36
15144;BMP180;7672;50.834;6.286;2023-03-01T04:25:56;100834.84;;;2.33
15144;BMP180;7672;50.834;6.286;2023-03-01T04:28:33;100828.88;;;2.31
15144;BMP180;7672;50.834;6.286;2023-03-01T04:31:06;100824.69;;;2.30
15144;BMP180;7672;50.834;6.286;2023-03-01T04:33:51;100823.75;;;2.28
15144;BMP180;7672;50.834;6.286;2023-03-01T04:36:21;100821.19;;;2.27
15144;BMP180;7672;50.834;6.286;2023-03-01T04:38:50;100816.03;;;2.24
15144;BMP180;7672;50.834;6.286;2023-03-01T04:41:19;100821.09;;;2.25
15144;BMP180;7672;50.834;6.286;2023-03-01T04:43:47;100830.88;;;2.22
15144;BMP180;7672;50.834;6.286;2023-03-01T04:46:18;100831.78;;;2.23
15144;BMP180;7672;50.834;6.286;2023-03-01T04:48:46;100830.81;;;2.21
15144;BMP180;7672;50.834;6.286;2023-03-01T04:51:14;100829.97;;;2.20
15144;BMP180;7672;50.834;6.286;2023-03-01T04:53:42;100834.88;;;2.19
15144;BMP180;7672;50.834;6.286;2023-03-01T04:56:09;100835.66;;;2.18
15144;BMP180;7672;50.834;6.286;2023-03-01T04:58:36;100827.22;;;2.16
15144;BMP180;7672;50.834;6.286;2023-03-01T05:01:16;100823.09;;;2.16
15144;BMP180;7672;50.834;6.286;2023-03-01T05:03:46;100818.13;;;2.16
15144;BMP180;7672;50.834;6.286;2023-03-01T05:06:14;100822.22;;;2.16
15144;BMP180;7672;50.834;6.286;2023-03-01T05:08:43;100815.50;;;2.15
15144;BMP180;7672;50.834;6.286;2023-03-01T05:11:11;100814.66;;;2.14
15144;BMP180;7672;50.834;6.286;2023-03-01T05:13:39;100818.81;;;2.14
15144;BMP180;7672;50.834;6.286;2023-03-01T05:16:08;100811.41;;;2.15
15144;BMP180;7672;50.834;6.286;2023-03-01T05:18:40;100818.00;;;2.15
15144;BMP180;7672;50.834;6.286;2023-03-01T05:21:12;100810.44;;;2.13
15144;BMP180;7672;50.834;6.286;2023-03-01T05:23:39;100807.03;;;2.11
15144;BMP180;7672;50.834;6.286;2023-03-01T05:26:06;100806.34;;;2.14
15144;BMP180;7672;50.834;6.286;2023-03-01T05:28:51;100810.44;;;2.13
15144;BMP180;7672;50.834;6.286;2023-03-01T05:31:18;100817.16;;;2.14
15144;BMP180;7672;50.834;6.286;2023-03-01T05:33:45;100818.81;;;2.14
15144;BMP180;7672;50.834;6.286;2023-03-01T05:36:12;100808.13;;;2.16
15144;BMP180;7672;50.834;6.286;2023-03-01T05:38:39;100801.41;;;2.15
15144;BMP180;7672;50.834;6.286;2023-03-01T05:41:14;100810.72;;;2.18
15144;BMP180;7672;50.834;6.286;2023-03-01T05:43:42;100807.25;;;2.16
15144;BMP180;7672;50.834;6.286;2023-03-01T05:46:11;100814.75;;;2.16
15144;BMP180;7672;50.834;6.286;2023-03-01T05:48:40;100814.66;;;2.14
15144;BMP180;7672;50.834;6.286;2023-03-01T05:51:07;100809.66;;;2.14
15144;BMP180;7672;50.834;6.286;2023-03-01T05:53:34;100817.06;;;2.13
15144;BMP180;7672;50.834;6.286;2023-03-01T05:56:06;100815.13;;;2.07
15144;BMP180;7672;50.834;6.286;2023-03-01T05:58:33;100810.72;;;2.03
15144;BMP180;7672;50.834;6.286;2023-03-01T06:01:00;100810.56;;;2.00
15144;BMP180;7672;50.834;6.286;2023-03-01T06:03:27;100820.53;;;2.00
15144;BMP180;7672;50.834;6.286;2023-03-01T06:05:57;100818.81;;;1.99
15144;BMP180;7672;50.834;6.286;2023-03-01T06:08:25;100822.88;;;1.97
15144;BMP180;7672;50.834;6.286;2023-03-01T06:10:53;100820.19;;;1.94
15144;BMP180;7672;50.834;6.286;2023-03-01T06:13:20;100820.03;;;1.91
15144;BMP180;7672;50.834;6.286;2023-03-01T06:15:47;100813.25;;;1.89
15144;BMP180;7672;50.834;6.286;2023-03-01T06:18:14;100813.25;;;1.89
15144;BMP180;7672;50.834;6.286;2023-03-01T06:20:41;100815.66;;;1.87
15144;BMP180;7672;50.834;6.286;2023-03-01T06:23:07;100811.44;;;1.86
15144;BMP180;7672;50.834;6.286;2023-03-01T06:25:37;100813.16;;;1.87
15144;BMP180;7672;50.834;6.286;2023-03-01T06:28:04;100806.28;;;1.83
15144;BMP180;7672;50.834;6.286;2023-03-01T06:30:31;100814.53;;;1.83
15144;BMP180;7672;50.834;6.286;2023-03-01T06:32:58;100805.34;;;1.82
15144;BMP180;7672;50.834;6.286;2023-03-01T06:35:28;100804.56;;;1.83
15144;BMP180;7672;50.834;6.286;2023-03-01T06:38:01;100805.41;;;1.83
15144;BMP180;7672;50.834;6.286;2023-03-01T06:40:29;100803.94;;;1.86
15144;BMP180;7672;50.834;6.286;2023-03-01T06:42:58;100812.38;;;1.88
15144;BMP180;7672;50.834;6.286;2023-03-01T06:45:25;100796.28;;;1.98
15144;BMP180;7672;50.834;6.286;2023-03-01T06:47:51;100800.31;;;2.10
15144;BMP180;7672;50.834;6.286;2023-03-01T06:50:19;100801.56;;;2.33
15144;BMP180;7672;50.834;6.286;2023-03-01T06:52:45;100798.16;;;2.62
15144;BMP180;7672;50.834;6.286;2023-03-01T06:55:12;100803.34;;;2.97
15144;BMP180;7672;50.834;6.286;2023-03-01T06:57:40;99887.78;;;3.43
15144;BMP180;7672;50.834;6.286;2023-03-01T07:00:08;100802.44;;;3.95
15144;BMP180;7672;50.834;6.286;2023-03-01T07:02:35;100796.81;;;4.52
15144;BMP180;7672;50.834;6.286;2023-03-01T07:05:02;100807.19;;;5.16
15144;BMP180;7672;50.834;6.286;2023-03-01T07:07:29;100802.53;;;5.83
15144;BMP180;7672;50.834;6.286;2023-03-01T07:09:55;100799.25;;;6.48
15144;BMP180;7672;50.834;6.286;2023-03-01T07:12:22;100801.28;;;7.03
15144;BMP180;7672;50.834;6.286;2023-03-01T07:14:49;100794.63;;;7.52
15144;BMP180;7672;50.834;6.286;2023-03-01T07:17:16;100801.81;;;7.91
15144;BMP180;7672;50.834;6.286;2023-03-01T07:19:43;100800.25;;;8.21
15144;BMP180;7672;50.834;6.286;2023-03-01T07:22:11;100796.94;;;8.50
15144;BMP180;7672;50.834;6.286;2023-03-01T07:24:38;100794.44;;;8.79
15144;BMP180;7672;50.834;6.286;2023-03-01T07:27:04;100789.31;;;9.05
15144;BMP180;7672;50.834;6.286;2023-03-01T07:29:31;100790.91;;;9.32
15144;BMP180;7672;50.834;6.286;2023-03-01T07:31:58;100784.00;;;9.58
15144;BMP180;7672;50.834;6.286;2023-03-01T07:34:25;100782.25;;;9.90
15144;BMP180;7672;50.834;6.286;2023-03-01T07:36:52;100775.41;;;10.19
15144;BMP180;7672;50.834;6.286;2023-03-01T07:39:19;100773.66;;;10.54
15144;BMP180;7672;50.834;6.286;2023-03-01T07:41:45;100773.72;;;10.99
15144;BMP180;7672;50.834;6.286;2023-03-01T07:44:12;100760.34;;;11.50
15144;BMP180;7672;50.834;6.286;2023-03-01T07:46:39;100770.59;;;12.09
15144;BMP180;7672;50.834;6.286;2023-03-01T07:49:06;100764.59;;;12.63
15144;BMP180;7672;50.834;6.286;2023-03-01T07:51:33;100772.75;;;13.04
15144;BMP180;7672;50.834;6.286;2023-03-01T07:54:00;100773.03;;;13.31
15144;BMP180;7672;50.834;6.286;2023-03-01T07:56:26;100770.78;;;13.59
15144;BMP180;7672;50.834;6.286;2023-03-01T07:58:53;100772.72;;;13.93
15144;BMP180;7672;50.834;6.286;2023-03-01T08:01:21;100771.31;;;14.26
15144;BMP180;7672;50.834;6.286;2023-03-01T08:03:48;100766.38;;;14.56
15144;BMP180;7672;50.834;6.286;2023-03-01T08:06:17;100760.53;;;14.77
15144;BMP180;7672;50.834;6.286;2023-03-01T08:08:44;100762.28;;;14.91
15144;BMP180;7672;50.834;6.286;2023-03-01T08:11:14;100760.63;;;14.96
15144;BMP180;7672;50.834;6.286;2023-03-01T08:13:42;100756.31;;;14.83
15144;BMP180;7672;50.834;6.286;2023-03-01T08:16:15;100755.41;;;14.63
15144;BMP180;7672;50.834;6.286;2023-03-01T08:18:43;100750.22;;;14.47
15144;BMP180;7672;50.834;6.286;2023-03-01T08:21:16;100749.41;;;14.49
15144;BMP180;7672;50.834;6.286;2023-03-01T08:23:44;100752.84;;;14.71
15144;BMP180;7672;50.834;6.286;2023-03-01T08:26:17;100751.28;;;14.95
15144;BMP180;7672;50.834;6.286;2023-03-01T08:28:46;100758.97;;;15.19
15144;BMP180;7672;50.834;6.286;2023-03-01T08:31:27;100751.41;;;15.46
15144;BMP180;7672;50.834;6.286;2023-03-01T08:33:59;100748.88;;;15.69
15144;BMP180;7672;50.834;6.286;2023-03-01T08:36:29;100759.91;;;15.94
15144;BMP180;7672;50.834;6.286;2023-03-01T08:38:57;100753.94;;;16.08
15144;BMP180;7672;50.834;6.286;2023-03-01T08:41:25;100756.47;;;16.14
15144;BMP180;7672;50.834;6.286;2023-03-01T08:43:52;100763.25;;;16.25
15144;BMP180;7672;50.834;6.286;2023-03-01T08:46:33;100763.22;;;16.46
15144;BMP180;7672;50.834;6.286;2023-03-01T08:49:03;100756.31;;;16.73
15144;BMP180;7672;50.834;6.286;2023-03-01T08:51:31;100744.28;;;16.99
15144;BMP180;7672;50.834;6.286;2023-03-01T08:54:10;100739.91;;;17.25
15144;BMP180;7672;50.834;6.286;2023-03-01T08:56:38;100741.41;;;17.53
15144;BMP180;7672;50.834;6.286;2023-03-01T08:59:05;100739.47;;;17.82
15144;BMP180;7672;50.834;6.286;2023-03-01T09:01:32;100742.59;;;18.10
15144;BMP180;7672;50.834;6.286;2023-03-01T09:03:59;100743.31;;;18.27
15144;BMP180;7672;50.834;6.286;2023-03-01T09:06:26;100738.13;;;18.35
15144;BMP180;7672;50.834;6.286;2023-03-01T09:08:53;100734.59;;;18.43
15144;BMP180;7672;50.834;6.286;2023-03-01T09:11:21;100730.19;;;18.54
15144;BMP180;7672;50.834;6.286;2023-03-01T09:13:49;100725.78;;;18.66
15144;BMP180;7672;50.834;6.286;2023-03-01T09:16:19;100734.03;;;18.86
15144;BMP180;7672;50.834;6.286;2023-03-01T09:18:54;100737.22;;;19.06
15144;BMP180;7672;50.834;6.286;2023-03-01T09:21:23;100730.22;;;19.19
15144;BMP180;7672;50.834;6.286;2023-03-01T09:24:11;100739.41;;;19.31
15144;BMP180;7672;50.834;6.286;2023-03-01T09:26:38;100736.03;;;19.31
15144;BMP180;7672;50.834;6.286;2023-03-01T09:29:05;100733.53;;;19.25
15144;BMP180;7672;50.834;6.286;2023-03-01T09:31:32;100732.72;;;19.22
15144;BMP180;7672;50.834;6.286;2023-03-01T09:33:59;100731.25;;;19.03
15144;BMP180;7672;50.834;6.286;2023-03-01T09:36:25;100735.03;;;18.75
15144;BMP180;7672;50.834;6.286;2023-03-01T09:38:53;100740.59;;;18.39
15144;BMP180;7672;50.834;6.286;2023-03-01T09:47:27;100717.69;;;17.34
15144;BMP180;7672;50.834;6.286;2023-03-01T09:50:16;100708.44;;;17.13
15144;BMP180;7672;50.834;6.286;2023-03-01T09:53:06;100711.84;;;17.12
15144;BMP180;7672;50.834;6.286;2023-03-01T09:55:41;100714.38;;;17.18
15144;BMP180;7672;50.834;6.286;2023-03-01T10:00:59;100705.91;;;17.11
15144;BMP180;7672;50.834;6.286;2023-03-01T10:03:44;100698.22;;;17.13
15144;BMP180;7672;50.834;6.286;2023-03-01T10:06:22;100701.59;;;17.18
15144;BMP180;7672;50.834;6.286;2023-03-01T10:09:15;100704.13;;;17.19
15144;BMP180;7672;50.834;6.286;2023-03-01T10:11:50;100702.41;;;17.27
15144;BMP180;7672;50.834;6.286;2023-03-01T10:14:33;100702.28;;;17.42
15144;BMP180;7672;50.834;6.286;2023-03-01T10:17:26;100698.00;;;17.45
15144;BMP180;7672;50.834;6.286;2023-03-01T10:20:05;100695.44;;;17.50
15144;BMP180;7672;50.834;6.286;2023-03-01T10:22:37;100696.16;;;17.65
15144;BMP180;7672;50.834;6.286;2023-03-01T10:25:04;100695.09;;;17.86
15144;BMP180;7672;50.834;6.286;2023-03-01T10:27:54;100697.50;;;17.99
15144;BMP180;7672;50.834;6.286;2023-03-01T10:30:36;100694.94;;;17.99
15144;BMP180;7672;50.834;6.286;2023-03-01T10:33:26;100689.00;;;17.97
15144;BMP180;7672;50.834;6.286;2023-03-01T10:35:53;100675.38;;;17.98
15144;BMP180;7672;50.834;6.286;2023-03-01T10:38:20;100677.13;;;17.93
15144;BMP180;7672;50.834;6.286;2023-03-01T10:41:06;100676.44;;;17.78
15144;BMP180;7672;50.834;6.286;2023-03-01T10:43:50;100671.50;;;17.57
15144;BMP180;7672;50.834;6.286;2023-03-01T10:49:19;100680.25;;;17.29
15144;BMP180;7672;50.834;6.286;2023-03-01T10:51:50;100666.75;;;17.06
15144;BMP180;7672;50.834;6.286;2023-03-01T10:54:29;100657.59;;;16.77
15144;BMP180;7672;50.834;6.286;2023-03-01T10:57:03;100660.28;;;16.53
15144;BMP180;7672;50.834;6.286;2023-03-01T10:59:38;100671.41;;;16.33
15144;BMP180;7672;50.834;6.286;2023-03-01T11:02:29;100659.59;;;15.98
15144;BMP180;7672;50.834;6.286;2023-03-01T11:05:13;100667.28;;;15.72
15144;BMP180;7672;50.834;6.286;2023-03-01T11:07:53;100653.75;;;15.41
15144;BMP180;7672;50.834;6.286;2023-03-01T11:10:28;100651.13;;;15.12
15144;BMP180;7672;50.834;6.286;2023-03-01T11:13:18;100642.66;;;14.91
15144;BMP180;7672;50.834;6.286;2023-03-01T11:16:10;100646.84;;;14.73
15144;BMP180;7672;50.834;6.286;2023-03-01T11:18:39;100636.66;;;14.62
15144;BMP180;7672;50.834;6.286;2023-03-01T11:21:15;100640.88;;;14.54
15144;BMP180;7672;50.834;6.286;2023-03-01T11:23:45;100637.47;;;14.52
15144;BMP180;7672;50.834;6.286;2023-03-01T11:26:15;100640.00;;;14.52
15144;BMP180;7672;50.834;6.286;2023-03-01T11:28:44;100624.75;;;14.55
15144;BMP180;7672;50.834;6.286;2023-03-01T11:31:14;100621.34;;;14.53
15144;BMP180;7672;50.834;6.286;2023-03-01T11:33:54;100616.28;;;14.52
15144;BMP180;7672;50.834;6.286;2023-03-01T11:36:41;100612.84;;;14.42
15144;BMP180;7672;50.834;6.286;2023-03-01T11:39:36;100611.94;;;14.24
15144;BMP180;7672;50.834;6.286;2023-03-01T11:42:28;100614.44;;;14.20
15144;BMP180;7672;50.834;6.286;2023-03-01T11:44:59;100617.91;;;14.30
15144;BMP180;7672;50.834;6.286;2023-03-01T11:48:11;100616.25;;;14.44
15144;BMP180;7672;50.834;6.286;2023-03-01T11:50:47;100607.78;;;14.56
15144;BMP180;7672;50.834;6.286;2023-03-01T11:54:02;100606.13;;;14.70
15144;BMP180;7672;50.834;6.286;2023-03-01T11:56:38;100590.03;;;14.72
15144;BMP180;7672;50.834;6.286;2023-03-01T11:59:53;100587.47;;;14.82
15144;BMP180;7672;50.834;6.286;2023-03-01T12:11:49;100563.72;;;14.97
15144;BMP180;7672;50.834;6.286;2023-03-01T12:17:32;100566.28;;;15.01
15144;BMP180;7672;50.834;6.286;2023-03-01T12:20:14;100570.50;;;15.01
15144;BMP180;7672;50.834;6.286;2023-03-01T12:23:25;100562.88;;;14.93
15144;BMP180;7672;50.834;6.286;2023-03-01T12:26:27;100562.03;;;14.81
15144;BMP180;7672;50.834;6.286;2023-03-01T12:29:48;100565.41;;;14.62
15144;BMP180;7672;50.834;6.286;2023-03-01T12:35:31;100559.38;;;14.22
15144;BMP180;7672;50.834;6.286;2023-03-01T12:49:14;100555.50;;;13.29
15144;BMP180;7672;50.834;6.286;2023-03-01T12:51:54;100548.63;;;13.16
15144;BMP180;7672;50.834;6.286;2023-03-01T12:54:33;100536.72;;;13.07
15144;BMP180;7672;50.834;6.286;2023-03-01T12:57:24;100536.66;;;13.00
15144;BMP180;7672;50.834;6.286;2023-03-01T13:00:00;100528.13;;;12.88
15144;BMP180;7672;50.834;6.286;2023-03-01T13:08:44;100529.31;;;12.36
15144;BMP180;7672;50.834;6.286;2023-03-01T13:11:23;100517.41;;;12.30
15144;BMP180;7672;50.834;6.286;2023-03-01T13:13:50;100508.91;;;12.25
15144;BMP180;7672;50.834;6.286;2023-03-01T13:16:39;100515.63;;;12.20
15144;BMP180;7672;50.834;6.286;2023-03-01T13:19:16;100513.00;;;12.12
15144;BMP180;7672;50.834;6.286;2023-03-01T13:21:45;100507.03;;;12.09
15144;BMP180;7672;50.834;6.286;2023-03-01T13:24:40;100512.91;;;12.03
15144;BMP180;7672;50.834;6.286;2023-03-01T13:29:59;100507.75;;;11.94
15144;BMP180;7672;50.834;6.286;2023-03-01T13:32:35;100508.50;;;11.87
15144;BMP180;7672;50.834;6.286;2023-03-01T13:37:46;100495.66;;;11.73
15144;BMP180;7672;50.834;6.286;2023-03-01T13:42:50;100489.69;;;11.68
15144;BMP180;7672;50.834;6.286;2023-03-01T13:45:42;100494.72;;;11.65
15144;BMP180;7672;50.834;6.286;2023-03-01T13:48:26;100492.13;;;11.60
15144;BMP180;7672;50.834;6.286;2023-03-01T13:51:00;100492.06;;;11.56
15144;BMP180;7672;50.834;6.286;2023-03-01T13:53:34;100491.09;;;11.49
15144;BMP180;7672;50.834;6.286;2023-03-01T13:56:24;100488.50;;;11.43
15144;BMP180;7672;50.834;6.286;2023-03-01T13:59:06;100485.81;;;11.33
15144;BMP180;7672;50.834;6.286;2023-03-01T14:01:39;100490.84;;;11.30
15144;BMP180;7672;50.834;6.286;2023-03-01T14:04:25;100482.38;;;11.26
15144;BMP180;7672;50.834;6.286;2023-03-01T14:07:17;100483.97;;;11.20
15144;BMP180;7672;50.834;6.286;2023-03-01T14:09:51;100483.94;;;11.17
15144;BMP180;7672;50.834;6.286;2023-03-01T14:12:46;100487.28;;;11.16
15144;BMP180;7672;50.834;6.286;2023-03-01T14:15:34;100484.66;;;11.10
15144;BMP180;7672;50.834;6.286;2023-03-01T14:18:13;100479.56;;;11.07
15144;BMP180;7672;50.834;6.286;2023-03-01T14:20:44;100478.69;;;11.07
15144;BMP180;7672;50.834;6.286;2023-03-01T14:23:23;100473.59;;;11.04
15144;BMP180;7672;50.834;6.286;2023-03-01T14:25:57;100472.72;;;11.02
15144;BMP180;7672;50.834;6.286;2023-03-01T14:28:32;100465.97;;;11.01
15144;BMP180;7672;50.834;6.286;2023-03-01T14:31:01;100461.72;;;10.98
15144;BMP180;7672;50.834;6.286;2023-03-01T14:33:33;100458.31;;;10.95
15144;BMP180;7672;50.834;6.286;2023-03-01T14:36:08;100448.97;;;10.89
15144;BMP180;7672;50.834;6.286;2023-03-01T14:38:44;100443.78;;;10.82
15144;BMP180;7672;50.834;6.286;2023-03-01T14:41:21;100439.44;;;10.73
15144;BMP180;7672;50.834;6.286;2023-03-01T14:43:58;100432.59;;;10.66
15144;BMP180;7672;50.834;6.286;2023-03-01T14:46:35;100431.69;;;10.63
15144;BMP180;7672;50.834;6.286;2023-03-01T14:49:12;100423.19;;;10.59
15144;BMP180;7672;50.834;6.286;2023-03-01T14:51:46;100419.78;;;10.57
15144;BMP180;7672;50.834;6.286;2023-03-01T14:54:50;100418.97;;;10.58
15144;BMP180;7672;50.834;6.286;2023-03-01T14:57:20;100413.88;;;10.57
15144;BMP180;7672;50.834;6.286;2023-03-01T14:59:58;100409.66;;;10.56
15144;BMP180;7672;50.834;6.286;2023-03-01T15:02:28;100405.41;;;10.53
15144;BMP180;7672;50.834;6.286;2023-03-01T15:05:00;100407.09;;;10.53
15144;BMP180;7672;50.834;6.286;2023-03-01T15:07:33;100409.59;;;10.51
15144;BMP180;7672;50.834;6.286;2023-03-01T15:10:03;100407.88;;;10.49
15144;BMP180;7672;50.834;6.286;2023-03-01T15:12:39;100413.72;;;10.45
15144;BMP180;7672;50.834;6.286;2023-03-01T15:17:58;100402.63;;;10.37
15144;BMP180;7672;50.834;6.286;2023-03-01T15:20:28;100408.53;;;10.36
15144;BMP180;7672;50.834;6.286;2023-03-01T15:22:57;100397.56;;;10.37
15144;BMP180;7672;50.834;6.286;2023-03-01T15:25:29;100396.75;;;10.40
15144;BMP180;7672;50.834;6.286;2023-03-01T15:27:59;100389.22;;;10.41
15144;BMP180;7672;50.834;6.286;2023-03-01T15:30:34;100395.13;;;10.43
15144;BMP180;7672;50.834;6.286;2023-03-01T15:33:35;100391.75;;;10.41
15144;BMP180;7672;50.834;6.286;2023-03-01T15:36:45;100396.72;;;10.35
15144;BMP180;7672;50.834;6.286;2023-03-01T15:39:43;100397.44;;;10.30
15144;BMP180;7672;50.834;6.286;2023-03-01T15:47:58;100383.00;;;10.20
15144;BMP180;7672;50.834;6.286;2023-03-01T15:50:32;100378.72;;;10.16
15144;BMP180;7672;50.834;6.286;2023-03-01T15:53:04;100374.41;;;10.12
15144;BMP180;7672;50.834;6.286;2023-03-01T15:55:33;100375.25;;;10.11
15144;BMP180;7672;50.834;6.286;2023-03-01T15:58:15;100374.38;;;10.10